createdAt,value
2023-03-16T00:01:47.860Z,97031.06
2023-03-16T00:04:47.405Z,97027.63
2023-03-16T00:07:44.293Z,97021.00
2023-03-16T00:10:46.723Z,97030.81
2023-03-16T00:13:43.551Z,97019.19
2023-03-16T00:16:40.502Z,97027.59
2023-03-16T00:19:37.400Z,97027.56
2023-03-16T00:22:34.755Z,97019.72
2023-03-16T00:25:33.650Z,97028.34
2023-03-16T00:28:35.279Z,97019.72
2023-03-16T00:31:33.934Z,97029.22
2023-03-16T00:34:34.687Z,97029.94
2023-03-16T00:37:36.949Z,97027.03
2023-03-16T00:40:33.919Z,97020.09
2023-03-16T00:43:41.004Z,97016.69
2023-03-16T00:46:38.062Z,97021.69
2023-03-16T00:49:36.476Z,97009.44
2023-03-16T00:52:35.346Z,97017.47
2023-03-16T00:55:32.406Z,97024.53
2023-03-16T00:58:29.343Z,97026.16
2023-03-16T01:01:27.452Z,97018.69
2023-03-16T01:04:24.429Z,97018.66
2023-03-16T01:07:21.985Z,97019.66
2023-03-16T01:10:18.902Z,97015.59
2023-03-16T01:13:15.730Z,97011.72
2023-03-16T01:16:13.024Z,97015.34
2023-03-16T01:19:09.892Z,97013.78
2023-03-16T01:22:07.795Z,97016.94
2023-03-16T01:25:05.647Z,97024.22
2023-03-16T01:28:02.474Z,97011.47
2023-03-16T01:31:03.900Z,97011.47
2023-03-16T01:34:04.144Z,97007.59
2023-03-16T01:37:01.684Z,97006.75
2023-03-16T01:39:58.571Z,97002.72
2023-03-16T01:43:04.758Z,96993.25
2023-03-16T01:46:07.484Z,97002.50
2023-03-16T01:49:08.026Z,97001.69
2023-03-16T01:52:08.771Z,97006.69
2023-03-16T01:55:13.253Z,97007.59
2023-03-16T01:58:11.748Z,97005.75
2023-03-16T02:01:09.131Z,96998.88
2023-03-16T02:04:29.281Z,97003.34
2023-03-16T02:07:29.349Z,96996.22
2023-03-16T02:10:29.095Z,96998.41
2023-03-16T02:13:29.512Z,96998.38
2023-03-16T02:16:26.921Z,96996.97
2023-03-16T02:19:59.944Z,96986.88
2023-03-16T02:22:57.948Z,96992.25
2023-03-16T02:26:10.940Z,96976.28
2023-03-16T02:29:32.659Z,96985.06
2023-03-16T02:32:32.143Z,96975.84
2023-03-16T02:35:29.102Z,96976.00
2023-03-16T02:38:26.030Z,96981.47
2023-03-16T02:41:23.090Z,96981.69
2023-03-16T02:44:27.451Z,96991.19
2023-03-16T02:47:40.203Z,96988.78
2023-03-16T02:50:42.453Z,96979.09
2023-03-16T02:53:39.787Z,96987.28
2023-03-16T02:56:36.764Z,96984.53
2023-03-16T02:59:33.606Z,96985.56
2023-03-16T03:02:30.429Z,96978.41
2023-03-16T03:05:27.278Z,96985.78
2023-03-16T03:08:24.182Z,96983.16
2023-03-16T03:11:21.008Z,96981.34
2023-03-16T03:14:18.264Z,96985.78
2023-03-16T03:17:15.210Z,96984.94
2023-03-16T03:20:16.454Z,96983.50
2023-03-16T03:23:15.367Z,96969.66
2023-03-16T03:26:15.242Z,96975.22
2023-03-16T03:29:12.654Z,96969.78
2023-03-16T03:32:09.572Z,96972.84
2023-03-16T03:35:07.481Z,96972.25
2023-03-16T03:38:04.356Z,96979.06
2023-03-16T03:41:01.194Z,96970.72
2023-03-16T03:43:58.030Z,96972.88
2023-03-16T03:46:54.948Z,96964.63
2023-03-16T03:49:51.958Z,96969.59
2023-03-16T03:52:48.789Z,96971.47
2023-03-16T03:55:46.259Z,96968.25
2023-03-16T03:58:43.120Z,96967.31
2023-03-16T04:01:40.090Z,96967.03
2023-03-16T04:04:37.394Z,96962.94
2023-03-16T04:07:34.654Z,96953.34
2023-03-16T04:10:31.804Z,96953.69
2023-03-16T04:13:28.819Z,96959.34
2023-03-16T04:16:27.126Z,96947.94
2023-03-16T04:19:25.449Z,96952.50
2023-03-16T04:22:23.375Z,96956.06
2023-03-16T04:25:20.275Z,96950.84
2023-03-16T04:28:17.883Z,96953.47
2023-03-16T04:31:14.915Z,96953.81
2023-03-16T04:34:12.605Z,96961.81
2023-03-16T04:37:09.686Z,96946.81
2023-03-16T04:40:16.566Z,96947.59
2023-03-16T04:43:13.720Z,96953.03
2023-03-16T04:46:11.965Z,96952.00
2023-03-16T04:49:09.808Z,96941.59
2023-03-16T04:52:07.621Z,96938.38
2023-03-16T04:55:06.057Z,96939.53
2023-03-16T04:58:02.969Z,96941.94
2023-03-16T05:00:59.854Z,96938.34
2023-03-16T05:04:05.836Z,96936.91
2023-03-16T05:07:10.721Z,96940.06
2023-03-16T05:10:23.561Z,96933.63
2023-03-16T05:13:33.059Z,96946.19
2023-03-16T05:16:31.056Z,96942.78
2023-03-16T05:19:27.981Z,96948.84
2023-03-16T05:22:25.825Z,96955.97
2023-03-16T05:25:23.219Z,96950.81
2023-03-16T05:28:20.222Z,96953.56
2023-03-16T05:31:17.112Z,96956.91
2023-03-16T05:34:14.217Z,96946.72
2023-03-16T05:37:11.279Z,96942.38
2023-03-16T05:41:08.675Z,96941.56
2023-03-16T05:44:07.679Z,96944.50
2023-03-16T05:47:04.733Z,96953.47
2023-03-16T05:50:01.754Z,96949.47
2023-03-16T05:52:58.739Z,96943.69
2023-03-16T05:55:56.213Z,96953.06
2023-03-16T05:58:56.730Z,96943.84
2023-03-16T06:01:54.760Z,96943.06
2023-03-16T06:04:51.914Z,96949.72
2023-03-16T06:07:50.188Z,96946.97
2023-03-16T06:10:48.364Z,96944.72
2023-03-16T06:13:45.314Z,96942.34
2023-03-16T06:16:42.236Z,96946.31
2023-03-16T06:19:39.230Z,96948.75
2023-03-16T06:22:40.267Z,96953.19
2023-03-16T06:25:39.547Z,96958.06
2023-03-16T06:28:37.519Z,96963.72
2023-03-16T06:31:34.605Z,96965.56
2023-03-16T06:34:31.572Z,96968.91
2023-03-16T06:37:28.919Z,96961.00
2023-03-16T06:40:26.670Z,96974.06
2023-03-16T06:43:28.858Z,96962.81
2023-03-16T06:46:26.882Z,96966.41
2023-03-16T06:49:25.313Z,96976.25
2023-03-16T06:52:28.602Z,96976.13
2023-03-16T06:55:25.548Z,96975.34
2023-03-16T06:58:22.409Z,96979.16
2023-03-16T07:01:19.607Z,96976.00
2023-03-16T07:04:16.927Z,96970.16
2023-03-16T07:07:14.055Z,96976.78
2023-03-16T07:10:13.749Z,96978.81
2023-03-16T07:13:10.593Z,96969.16
2023-03-16T07:16:07.917Z,96970.22
2023-03-16T07:19:04.888Z,96964.97
2023-03-16T07:22:02.874Z,96971.84
2023-03-16T07:25:00.183Z,96969.03
2023-03-16T07:27:57.206Z,96974.47
2023-03-16T07:31:03.464Z,96970.66
2023-03-16T07:34:02.478Z,96975.47
2023-03-16T07:36:59.417Z,96977.88
2023-03-16T07:39:56.284Z,96976.03
2023-03-16T07:42:53.136Z,96981.09
2023-03-16T07:45:51.897Z,96985.13
2023-03-16T07:48:48.857Z,96989.72
2023-03-16T07:51:46.026Z,96982.44
2023-03-16T07:54:43.321Z,96980.84
2023-03-16T07:57:42.168Z,96974.66
2023-03-16T08:00:40.343Z,96970.88
2023-03-16T08:03:37.357Z,96954.53
2023-03-16T08:06:34.397Z,96925.69
2023-03-16T08:09:31.249Z,96920.88
2023-03-16T08:12:28.100Z,96915.91
2023-03-16T08:15:25.059Z,96918.06
2023-03-16T08:18:23.860Z,96927.94
2023-03-16T08:21:21.459Z,96913.19
2023-03-16T08:24:18.353Z,96917.53
2023-03-16T08:27:16.174Z,96919.06
2023-03-16T08:30:14.227Z,96909.38
2023-03-16T08:33:11.740Z,96909.81
2023-03-16T08:36:12.388Z,96923.41
2023-03-16T08:39:11.888Z,96911.31
2023-03-16T08:42:09.624Z,96909.66
2023-03-16T08:45:12.386Z,96908.91
2023-03-16T08:48:12.934Z,96907.41
2023-03-16T08:51:11.584Z,96910.91
2023-03-16T08:54:08.471Z,96916.34
2023-03-16T08:57:05.573Z,96916.75
2023-03-16T09:00:09.742Z,96912.66
2023-03-16T09:03:07.350Z,96908.16
2023-03-16T09:06:07.858Z,96915.44
2023-03-16T09:09:04.767Z,96919.69
2023-03-16T09:12:02.412Z,96911.66
2023-03-16T09:14:59.234Z,96924.34
2023-03-16T09:17:58.020Z,96918.53
2023-03-16T09:21:06.082Z,96912.16
2023-03-16T09:24:02.915Z,96914.97
2023-03-16T09:27:00.075Z,96913.56
2023-03-16T09:29:59.447Z,96919.03
2023-03-16T09:32:56.862Z,96932.22
2023-03-16T09:35:54.125Z,96928.28
2023-03-16T09:38:51.010Z,96928.97
2023-03-16T09:42:10.146Z,96919.84
2023-03-16T09:45:24.464Z,96923.16
2023-03-16T09:48:22.294Z,96922.53
2023-03-16T09:52:20.501Z,96926.78
2023-03-16T09:55:35.832Z,96920.66
2023-03-16T09:58:32.988Z,96915.97
2023-03-16T10:01:48.344Z,96918.97
2023-03-16T10:05:09.672Z,96908.25
2023-03-16T10:08:20.864Z,96902.91
2023-03-16T10:11:46.394Z,96914.88
2023-03-16T10:15:10.319Z,96902.38
2023-03-16T10:18:32.486Z,96893.56
2023-03-16T10:21:38.725Z,96894.31
2023-03-16T10:25:27.502Z,96885.69
2023-03-16T10:28:28.231Z,96876.59
2023-03-16T10:31:25.171Z,96879.91
2023-03-16T10:34:23.596Z,96891.38
2023-03-16T10:37:21.530Z,96885.53
2023-03-16T10:40:20.361Z,96885.88
2023-03-16T10:43:17.299Z,96890.09
2023-03-16T10:46:15.201Z,96894.03
2023-03-16T10:49:25.552Z,96901.66
2023-03-16T10:52:44.504Z,96892.72
2023-03-16T10:55:50.007Z,96900.47
2023-03-16T10:58:47.369Z,96887.75
2023-03-16T11:01:50.083Z,96879.94
2023-03-16T11:04:47.984Z,96887.41
2023-03-16T11:07:59.633Z,96875.19
2023-03-16T11:11:08.397Z,96876.25
2023-03-16T11:14:13.833Z,96884.44
2023-03-16T11:17:34.828Z,96876.66
2023-03-16T11:20:34.665Z,96859.97
2023-03-16T11:23:37.317Z,96872.41
2023-03-16T11:26:36.420Z,96850.06
2023-03-16T11:29:59.476Z,96862.03
2023-03-16T11:32:57.242Z,96855.69
2023-03-16T11:36:12.862Z,96843.13
2023-03-16T11:39:27.915Z,96841.41
2023-03-16T11:42:39.406Z,96834.47
2023-03-16T11:46:07.328Z,96832.59
2023-03-16T11:49:37.000Z,96817.72
2023-03-16T11:53:05.045Z,96815.22
2023-03-16T11:56:13.269Z,96821.41
2023-03-16T12:00:01.019Z,96812.00
2023-03-16T12:03:38.304Z,96795.22
2023-03-16T12:06:51.296Z,96790.97
2023-03-16T12:10:24.077Z,96787.34
2023-03-16T12:13:40.376Z,96795.63
2023-03-16T12:17:11.047Z,96769.88
2023-03-16T12:20:25.153Z,96798.34
2023-03-16T12:23:43.972Z,96787.22
2023-03-16T12:26:43.373Z,96785.16
2023-03-16T12:29:58.717Z,96770.63
2023-03-16T12:33:52.675Z,96758.63
2023-03-16T12:37:24.152Z,96773.31
2023-03-16T12:40:49.252Z,96754.53
2023-03-16T12:44:06.617Z,96750.31
2023-03-16T12:47:18.678Z,96758.34
2023-03-16T12:50:19.055Z,96764.78
2023-03-16T12:53:52.343Z,96748.59
2023-03-16T12:56:51.702Z,96748.81
2023-03-16T12:59:50.697Z,96738.72
2023-03-16T13:02:56.048Z,96741.44
2023-03-16T13:06:00.783Z,96725.53
2023-03-16T13:09:01.045Z,96721.88
2023-03-16T13:11:59.623Z,96715.72
2023-03-16T13:14:57.066Z,96729.63
2023-03-16T13:18:24.975Z,96712.97
2023-03-16T13:21:42.641Z,96719.00
2023-03-16T13:24:40.139Z,96712.88
2023-03-16T13:27:40.154Z,96715.50
2023-03-16T13:30:37.369Z,96732.03
2023-03-16T13:33:40.712Z,96730.22
2023-03-16T13:36:37.914Z,96727.22
2023-03-16T13:39:34.781Z,96720.34
2023-03-16T13:42:33.407Z,96732.19
2023-03-16T13:45:37.383Z,96735.88
2023-03-16T13:48:37.535Z,96733.06
2023-03-16T13:51:36.568Z,96726.91
2023-03-16T13:54:37.245Z,96709.63
2023-03-16T13:57:40.582Z,96696.34
2023-03-16T14:00:43.879Z,96690.81
2023-03-16T14:03:42.280Z,96689.03
2023-03-16T14:06:41.245Z,96694.91
2023-03-16T14:09:38.265Z,96679.94
2023-03-16T14:12:37.287Z,96687.56
2023-03-16T14:15:36.187Z,96682.38
2023-03-16T14:18:44.592Z,96677.03
2023-03-16T14:21:45.861Z,96662.69
2023-03-16T14:24:44.346Z,96674.81
2023-03-16T14:27:41.042Z,96659.03
2023-03-16T14:30:38.237Z,96651.31
2023-03-16T14:33:40.008Z,96643.66
2023-03-16T14:36:38.868Z,96655.53
2023-03-16T14:39:35.935Z,96641.00
2023-03-16T14:42:33.061Z,96642.66
2023-03-16T14:45:37.316Z,96640.56
2023-03-16T14:48:35.576Z,96633.19
2023-03-16T14:51:34.158Z,96632.91
2023-03-16T14:54:31.206Z,96633.03
2023-03-16T14:57:28.049Z,96632.13
2023-03-16T15:00:26.245Z,96632.91
2023-03-16T15:03:35.550Z,96642.50
2023-03-16T15:06:34.285Z,96637.03
2023-03-16T15:09:43.800Z,96637.16
2023-03-16T15:12:41.366Z,96647.13
2023-03-16T15:15:40.937Z,96643.56
2023-03-16T15:18:39.843Z,96638.72
2023-03-16T15:21:36.712Z,96640.53
2023-03-16T15:24:33.813Z,96640.03
2023-03-16T15:27:36.296Z,96638.56
2023-03-16T15:30:33.385Z,96646.31
2023-03-16T15:33:30.702Z,96627.97
2023-03-16T15:36:27.599Z,96623.88
2023-03-16T15:39:25.207Z,96626.22
2023-03-16T15:42:22.690Z,96620.47
2023-03-16T15:45:22.659Z,96622.25
2023-03-16T15:48:24.075Z,96634.84
2023-03-16T15:51:27.913Z,96628.66
2023-03-16T15:54:24.845Z,96626.28
2023-03-16T15:57:21.678Z,96633.91
2023-03-16T16:00:36.488Z,96640.22
2023-03-16T16:03:33.982Z,96629.31
2023-03-16T16:06:31.914Z,96624.88
2023-03-16T16:09:28.752Z,96609.66
2023-03-16T16:12:27.951Z,96612.09
2023-03-16T16:15:37.037Z,96599.13
2023-03-16T16:18:38.674Z,96600.94
2023-03-16T16:21:35.716Z,96603.09
2023-03-16T16:24:33.464Z,96591.19
2023-03-16T16:27:30.658Z,96597.53
2023-03-16T16:30:31.317Z,96597.53
2023-03-16T16:33:34.587Z,96604.63
2023-03-16T16:36:32.456Z,96597.22
2023-03-16T16:39:29.343Z,96605.66
2023-03-16T16:42:26.540Z,96604.63
2023-03-16T16:45:26.009Z,96612.50
2023-03-16T16:48:48.691Z,96601.63
2023-03-16T16:51:46.481Z,96603.16
2023-03-16T16:54:43.541Z,96604.16
2023-03-16T16:57:41.211Z,96608.03
2023-03-16T17:00:39.643Z,96616.53
2023-03-16T17:03:36.770Z,96607.06
2023-03-16T17:06:33.622Z,96611.59
2023-03-16T17:09:31.040Z,96616.28
2023-03-16T17:12:29.558Z,96619.56
2023-03-16T17:15:30.699Z,96621.31
2023-03-16T17:18:27.798Z,96605.13
2023-03-16T17:21:28.439Z,96622.47
2023-03-16T17:24:26.065Z,96615.09
2023-03-16T17:27:31.313Z,96619.94
2023-03-16T17:30:30.820Z,96618.75
2023-03-16T17:33:28.391Z,96611.34
2023-03-16T17:36:25.567Z,96599.16
2023-03-16T17:39:31.150Z,96606.28
2023-03-16T17:42:28.017Z,96600.34
2023-03-16T17:45:28.577Z,96599.13
2023-03-16T17:48:25.528Z,96613.81
2023-03-16T17:51:25.546Z,96607.31
2023-03-16T17:54:23.066Z,96613.84
2023-03-16T17:57:27.712Z,96607.97
2023-03-16T18:00:34.848Z,96604.56
2023-03-16T18:03:31.820Z,96597.69
2023-03-16T18:06:30.094Z,96601.28
2023-03-16T18:09:28.674Z,96590.44
2023-03-16T18:12:25.700Z,96599.06
2023-03-16T18:15:27.890Z,96592.88
2023-03-16T18:18:31.860Z,96596.78
2023-03-16T18:21:28.807Z,96594.22
2023-03-16T18:24:26.774Z,96594.84
2023-03-16T18:27:24.347Z,96599.88
2023-03-16T18:30:21.677Z,96597.53
2023-03-16T18:33:30.391Z,96594.22
2023-03-16T18:36:34.906Z,96600.44
2023-03-16T18:39:32.502Z,96585.97
2023-03-16T18:42:29.608Z,96594.22
2023-03-16T18:45:27.891Z,96593.06
2023-03-16T18:48:34.869Z,96594.69
2023-03-16T18:51:32.030Z,96599.53
2023-03-16T18:54:32.314Z,96602.28
2023-03-16T18:57:31.739Z,96600.03
2023-03-16T19:00:29.849Z,96594.91
2023-03-16T19:03:34.441Z,96589.16
2023-03-16T19:06:35.699Z,96590.91
2023-03-16T19:09:33.180Z,96597.22
2023-03-16T19:12:30.069Z,96606.03
2023-03-16T19:15:30.994Z,96584.22
2023-03-16T19:18:29.286Z,96597.72
2023-03-16T19:21:26.168Z,96595.47
2023-03-16T19:24:29.870Z,96591.16
2023-03-16T19:27:36.901Z,96598.41
2023-03-16T19:30:35.676Z,96613.81
2023-03-16T19:33:32.577Z,96617.03
2023-03-16T19:36:31.790Z,96603.00
2023-03-16T19:39:28.656Z,96612.59
2023-03-16T19:42:36.249Z,96623.31
2023-03-16T19:45:33.965Z,96611.28
2023-03-16T19:48:34.204Z,96618.53
2023-03-16T19:51:32.286Z,96616.81
2023-03-16T19:54:35.042Z,96614.09
2023-03-16T19:57:31.920Z,96616.28
2023-03-16T20:00:30.179Z,96610.56
2023-03-16T20:03:29.071Z,96613.00
2023-03-16T20:06:26.283Z,96615.19
2023-03-16T20:09:23.172Z,96618.88
2023-03-16T20:12:27.289Z,96616.56
2023-03-16T20:15:32.371Z,96614.84
2023-03-16T20:18:29.436Z,96616.06
2023-03-16T20:21:27.475Z,96611.81
2023-03-16T20:24:24.641Z,96601.91
2023-03-16T20:27:24.154Z,96598.56
2023-03-16T20:30:21.640Z,96605.66
2023-03-16T20:33:25.440Z,96602.47
2023-03-16T20:36:23.797Z,96598.16
2023-03-16T20:39:21.009Z,96613.25
2023-03-16T20:42:21.606Z,96602.16
2023-03-16T20:45:28.351Z,96612.72
2023-03-16T20:48:27.441Z,96611.97
2023-03-16T20:51:24.650Z,96605.13
2023-03-16T20:54:21.498Z,96608.19
2023-03-16T20:57:27.513Z,96600.50
2023-03-16T21:00:38.804Z,96605.00
2023-03-16T21:03:35.671Z,96597.00
2023-03-16T21:06:33.730Z,96588.75
2023-03-16T21:09:33.207Z,96591.81
2023-03-16T21:12:33.768Z,96587.41
2023-03-16T21:15:33.375Z,96588.59
2023-03-16T21:18:30.909Z,96587.66
2023-03-16T21:21:28.099Z,96588.91
2023-03-16T21:24:24.938Z,96589.59
2023-03-16T21:27:29.633Z,96591.41
2023-03-16T21:30:35.287Z,96589.25
2023-03-16T21:33:38.771Z,96587.63
2023-03-16T21:36:35.800Z,96588.88
2023-03-16T21:39:33.106Z,96585.88
2023-03-16T21:42:29.971Z,96590.44
2023-03-16T21:45:27.257Z,96583.56
2023-03-16T21:48:37.830Z,96579.78
2023-03-16T21:51:34.934Z,96571.34
2023-03-16T21:54:31.875Z,96584.28
2023-03-16T21:57:28.706Z,96578.81
2023-03-16T22:00:32.066Z,96579.44
2023-03-16T22:03:50.053Z,96559.44
2023-03-16T22:06:47.590Z,96564.91
2023-03-16T22:09:44.432Z,96563.97
2023-03-16T22:12:41.427Z,96543.72
2023-03-16T22:15:42.720Z,96543.78
2023-03-16T22:18:39.746Z,96538.81
2023-03-16T22:21:39.893Z,96544.53
2023-03-16T22:24:37.202Z,96548.50
2023-03-16T22:27:34.052Z,96531.81
2023-03-16T22:30:31.575Z,96535.97
2023-03-16T22:33:32.031Z,96528.28
2023-03-16T22:36:30.313Z,96527.91
2023-03-16T22:39:27.922Z,96517.28
2023-03-16T22:42:37.971Z,96520.34
2023-03-16T22:45:35.179Z,96521.50
2023-03-16T22:48:32.363Z,96521.53
2023-03-16T22:51:37.661Z,96508.00
2023-03-16T22:54:34.518Z,96508.06
2023-03-16T22:57:32.588Z,96504.81
2023-03-16T23:00:29.845Z,96499.44
2023-03-16T23:03:26.835Z,96500.88
2023-03-16T23:06:27.294Z,96506.44
2023-03-16T23:09:24.499Z,96512.91
2023-03-16T23:12:22.106Z,96521.13
2023-03-16T23:15:25.419Z,96508.69
2023-03-16T23:18:26.542Z,96504.75
2023-03-16T23:21:25.711Z,96490.34
2023-03-16T23:24:23.209Z,96484.00
2023-03-16T23:27:22.360Z,96486.97
2023-03-16T23:30:25.818Z,96482.75
2023-03-16T23:33:23.090Z,96484.09
2023-03-16T23:36:24.545Z,96490.28
2023-03-16T23:39:21.440Z,96492.44
2023-03-16T23:42:18.268Z,96484.13
2023-03-16T23:45:30.556Z,96489.41
2023-03-16T23:48:28.033Z,96492.13
2023-03-16T23:51:30.550Z,96495.28
2023-03-16T23:54:30.887Z,96492.72
2023-03-16T23:57:27.762Z,96493.56
